createdAt,value
2022-11-23T00:01:27.217Z,86.38
2022-11-23T00:04:32.083Z,86.95
2022-11-23T00:07:38.304Z,86.42
2022-11-23T00:10:42.358Z,86.34
2022-11-23T00:13:47.328Z,85.08
2022-11-23T00:16:51.258Z,84.70
2022-11-23T00:19:56.148Z,85.07
2022-11-23T00:23:01.849Z,84.83
2022-11-23T00:26:07.073Z,83.75
2022-11-23T00:29:11.195Z,83.37
2022-11-23T00:32:17.353Z,82.55
2022-11-23T00:35:21.358Z,82.77
2022-11-23T00:38:27.373Z,83.27
2022-11-23T00:41:31.464Z,83.69
2022-11-23T00:44:35.846Z,85.66
2022-11-23T00:47:40.929Z,86.21
2022-11-23T00:50:45.149Z,87.40
2022-11-23T00:53:51.813Z,87.72
2022-11-23T00:56:55.915Z,88.86
2022-11-23T01:00:02.051Z,89.46
2022-11-23T01:03:07.112Z,89.69
2022-11-23T01:06:13.384Z,89.57
2022-11-23T01:09:21.899Z,88.89
2022-11-23T01:12:25.955Z,88.64
2022-11-23T01:15:30.393Z,88.26
2022-11-23T01:18:34.876Z,87.73
2022-11-23T01:21:40.333Z,86.93
2022-11-23T01:24:47.516Z,86.82
2022-11-23T01:27:51.549Z,86.91
2022-11-23T01:30:56.047Z,87.30
2022-11-23T01:34:01.961Z,86.68
2022-11-23T01:37:06.526Z,86.51
2022-11-23T01:40:14.445Z,85.95
2022-11-23T01:43:20.023Z,86.27
2022-11-23T01:46:24.616Z,85.78
2022-11-23T01:49:31.478Z,85.41
2022-11-23T01:52:36.121Z,85.36
2022-11-23T01:55:43.079Z,85.86
2022-11-23T01:58:50.211Z,85.36
2022-11-23T02:01:55.199Z,84.47
2022-11-23T02:05:02.474Z,84.43
2022-11-23T02:08:08.024Z,84.14
2022-11-23T02:11:16.230Z,84.13
2022-11-23T02:14:23.525Z,83.01
2022-11-23T02:17:28.189Z,82.84
2022-11-23T02:20:33.777Z,82.49
2022-11-23T02:23:54.048Z,83.25
2022-11-23T02:26:59.159Z,83.26
2022-11-23T02:30:03.409Z,83.02
2022-11-23T02:33:07.080Z,83.48
2022-11-23T02:36:35.479Z,83.39
2022-11-23T02:39:41.596Z,83.65
2022-11-23T02:42:46.560Z,83.08
2022-11-23T02:45:52.510Z,83.25
2022-11-23T02:48:55.120Z,82.97
2022-11-23T02:51:57.826Z,81.89
2022-11-23T02:55:00.487Z,81.34
2022-11-23T02:58:05.822Z,82.33
2022-11-23T03:01:08.753Z,82.17
2022-11-23T03:04:11.574Z,82.40
2022-11-23T03:07:14.224Z,81.95
2022-11-23T03:10:17.323Z,82.46
2022-11-23T03:13:21.505Z,82.68
2022-11-23T03:16:24.179Z,83.05
2022-11-23T03:19:26.825Z,84.06
2022-11-23T03:22:29.488Z,84.54
2022-11-23T03:25:32.164Z,84.70
2022-11-23T03:28:36.283Z,84.71
2022-11-23T03:31:38.957Z,85.41
2022-11-23T03:34:41.655Z,85.84
2022-11-23T03:37:44.296Z,86.76
2022-11-23T03:40:46.972Z,86.81
2022-11-23T03:43:51.036Z,87.50
2022-11-23T03:46:53.782Z,87.98
2022-11-23T03:49:56.484Z,88.51
2022-11-23T03:53:00.091Z,88.98
2022-11-23T03:56:02.817Z,87.62
2022-11-23T03:59:06.964Z,87.45
2022-11-23T04:02:09.696Z,86.73
2022-11-23T04:05:12.450Z,87.85
2022-11-23T04:08:15.140Z,88.24
2022-11-23T04:11:17.789Z,87.70
2022-11-23T04:14:21.861Z,89.11
2022-11-23T04:17:24.533Z,88.70
2022-11-23T04:20:27.777Z,88.98
2022-11-23T04:23:30.451Z,88.76
2022-11-23T04:26:33.212Z,89.38
2022-11-23T04:29:37.224Z,89.67
2022-11-23T04:32:39.920Z,88.60
2022-11-23T04:35:42.579Z,88.44
2022-11-23T04:38:45.224Z,88.17
2022-11-23T04:41:47.876Z,88.23
2022-11-23T04:44:51.858Z,86.86
2022-11-23T04:47:54.527Z,86.31
2022-11-23T04:50:57.331Z,86.84
2022-11-23T04:53:59.993Z,86.31
2022-11-23T04:57:02.680Z,85.51
2022-11-23T05:00:08.080Z,85.89
2022-11-23T05:03:12.858Z,86.37
2022-11-23T05:06:18.021Z,85.68
2022-11-23T05:09:23.017Z,86.24
2022-11-23T05:12:27.678Z,86.18
2022-11-23T05:15:33.941Z,85.28
2022-11-23T05:18:38.024Z,86.12
2022-11-23T05:21:42.548Z,86.14
2022-11-23T05:24:48.178Z,86.33
2022-11-23T05:27:52.447Z,86.41
2022-11-23T05:30:57.965Z,86.67
2022-11-23T05:34:01.917Z,88.59
2022-11-23T05:37:05.780Z,88.52
2022-11-23T05:40:11.197Z,88.69
2022-11-23T05:43:15.604Z,88.92
2022-11-23T05:46:21.309Z,88.95
2022-11-23T05:49:25.600Z,90.44
2022-11-23T05:52:29.799Z,89.96
2022-11-23T05:55:34.488Z,90.27
2022-11-23T05:58:38.413Z,90.50
2022-11-23T06:01:44.103Z,90.81
2022-11-23T06:04:48.378Z,90.41
2022-11-23T06:07:54.925Z,91.05
2022-11-23T06:11:02.369Z,90.71
2022-11-23T06:14:09.968Z,91.00
2022-11-23T06:17:18.981Z,91.41
2022-11-23T06:20:23.198Z,90.93
2022-11-23T06:23:27.350Z,91.11
2022-11-23T06:26:31.862Z,90.70
2022-11-23T06:29:35.974Z,90.18
2022-11-23T06:32:41.671Z,90.68
2022-11-23T06:35:54.302Z,90.27
2022-11-23T06:38:59.402Z,90.46
2022-11-23T06:42:23.694Z,90.31
2022-11-23T06:45:30.707Z,90.50
2022-11-23T06:48:36.938Z,90.56
2022-11-23T06:51:43.330Z,89.86
2022-11-23T06:54:48.199Z,89.95
2022-11-23T06:57:54.125Z,90.25
2022-11-23T07:01:02.507Z,90.69
2022-11-23T07:04:09.415Z,90.44
2022-11-23T07:07:14.395Z,91.38
2022-11-23T07:10:19.380Z,90.53
2022-11-23T07:13:23.499Z,90.02
2022-11-23T07:16:27.768Z,90.12
2022-11-23T07:19:34.648Z,89.69
2022-11-23T07:22:39.456Z,89.92
2022-11-23T07:25:44.188Z,89.97
2022-11-23T07:28:48.340Z,89.59
2022-11-23T07:31:53.051Z,89.17
2022-11-23T07:34:59.940Z,90.37
2022-11-23T07:38:04.841Z,90.12
2022-11-23T07:41:10.475Z,89.45
2022-11-23T07:44:17.958Z,88.41
2022-11-23T07:47:22.613Z,88.30
2022-11-23T07:50:29.834Z,88.07
2022-11-23T07:53:36.552Z,88.48
2022-11-23T07:56:41.092Z,88.56
2022-11-23T07:59:45.445Z,87.93
2022-11-23T08:03:19.492Z,87.50
2022-11-23T08:06:18.841Z,87.02
2022-11-23T08:09:24.522Z,86.18
2022-11-23T08:12:29.493Z,85.40
2022-11-23T08:15:35.603Z,84.11
2022-11-23T08:18:40.126Z,82.52
2022-11-23T08:21:46.224Z,82.89
2022-11-23T08:24:50.708Z,81.77
2022-11-23T08:27:57.867Z,81.19
2022-11-23T08:31:08.213Z,80.09
2022-11-23T08:34:12.550Z,80.86
2022-11-23T08:37:18.703Z,80.62
2022-11-23T08:40:25.588Z,80.37
2022-11-23T08:43:30.730Z,80.29
2022-11-23T08:46:35.463Z,81.21
2022-11-23T08:49:43.039Z,81.75
2022-11-23T08:52:48.890Z,77.74
2022-11-23T08:55:54.275Z,78.34
2022-11-23T08:58:59.021Z,77.05
2022-11-23T09:02:04.321Z,76.45
2022-11-23T09:05:09.915Z,76.28
2022-11-23T09:08:16.861Z,74.19
2022-11-23T09:11:21.359Z,74.45
2022-11-23T09:14:27.703Z,73.57
2022-11-23T09:17:34.376Z,71.99
2022-11-23T09:20:38.820Z,71.55
2022-11-23T09:23:44.588Z,71.37
2022-11-23T09:26:49.184Z,71.02
2022-11-23T09:29:53.609Z,69.68
2022-11-23T09:32:58.435Z,69.29
2022-11-23T09:36:04.497Z,70.34
2022-11-23T09:39:10.875Z,64.30
2022-11-23T09:42:41.165Z,57.99
2022-11-23T09:45:51.523Z,55.05
2022-11-23T09:49:15.687Z,57.06
2022-11-23T09:52:24.116Z,58.52
2022-11-23T09:55:39.989Z,60.80
2022-11-23T09:58:44.515Z,63.58
2022-11-23T10:01:49.995Z,64.15
2022-11-23T10:04:55.643Z,64.36
2022-11-23T10:08:08.460Z,64.22
2022-11-23T10:11:37.122Z,64.25
2022-11-23T10:14:56.921Z,62.36
2022-11-23T10:18:16.824Z,59.68
2022-11-23T10:21:30.214Z,55.73
2022-11-23T10:24:41.462Z,52.77
2022-11-23T10:27:50.433Z,52.58
2022-11-23T10:31:03.697Z,53.12
2022-11-23T10:34:14.076Z,53.28
2022-11-23T10:37:20.103Z,52.68
2022-11-23T10:40:28.746Z,52.54
2022-11-23T10:43:40.128Z,51.57
2022-11-23T10:46:45.763Z,49.12
2022-11-23T10:49:59.991Z,46.86
2022-11-23T10:53:22.764Z,47.19
2022-11-23T10:56:28.155Z,47.80
2022-11-23T10:59:38.796Z,46.09
2022-11-23T11:02:45.720Z,43.32
2022-11-23T11:06:08.474Z,43.36
2022-11-23T11:09:22.182Z,43.17
2022-11-23T11:12:27.596Z,45.88
2022-11-23T11:15:38.865Z,44.40
2022-11-23T11:18:52.102Z,43.66
2022-11-23T11:21:57.349Z,43.38
2022-11-23T11:25:02.723Z,40.65
2022-11-23T11:28:26.782Z,40.14
2022-11-23T11:31:49.635Z,39.10
2022-11-23T11:34:58.970Z,39.27
2022-11-23T11:38:11.832Z,39.04
2022-11-23T11:41:19.908Z,38.53
2022-11-23T11:44:28.338Z,35.81
2022-11-23T11:47:38.971Z,36.27
2022-11-23T11:50:49.996Z,36.23
2022-11-23T11:54:02.636Z,37.40
2022-11-23T11:57:12.163Z,38.93
2022-11-23T12:00:20.395Z,40.65
2022-11-23T12:03:37.253Z,40.83
2022-11-23T12:06:48.173Z,39.77
2022-11-23T12:09:59.064Z,39.08
2022-11-23T12:13:03.705Z,36.81
2022-11-23T12:16:19.111Z,38.05
2022-11-23T12:19:33.761Z,38.36
2022-11-23T12:22:50.064Z,38.23
2022-11-23T12:26:10.355Z,36.30
2022-11-23T12:29:48.721Z,32.73
2022-11-23T12:33:04.849Z,31.17
2022-11-23T12:36:36.824Z,31.66
2022-11-23T12:40:17.017Z,30.70
2022-11-23T12:43:26.087Z,28.56
2022-11-23T12:46:40.983Z,27.50
2022-11-23T12:49:52.625Z,26.65
2022-11-23T12:53:09.130Z,24.79
2022-11-23T12:56:27.203Z,25.21
2022-11-23T12:59:45.274Z,25.29
2022-11-23T13:03:22.756Z,25.86
2022-11-23T13:07:20.353Z,28.19
2022-11-23T13:10:42.657Z,29.44
2022-11-23T13:13:59.612Z,30.08
2022-11-23T13:17:20.252Z,32.15
2022-11-23T13:20:48.263Z,34.02
2022-11-23T13:23:53.191Z,36.58
2022-11-23T13:27:31.815Z,38.05
2022-11-23T13:34:29.168Z,39.26
2022-11-23T13:38:09.594Z,41.72
2022-11-23T13:41:57.982Z,42.39
2022-11-23T13:45:26.392Z,43.25
2022-11-23T13:49:01.105Z,43.78
2022-11-23T13:52:08.782Z,45.25
2022-11-23T13:55:31.487Z,46.42
2022-11-23T13:58:40.992Z,47.06
2022-11-23T14:02:04.775Z,47.59
2022-11-23T14:05:56.836Z,48.80
2022-11-23T14:09:09.155Z,48.51
2022-11-23T14:12:28.411Z,50.08
2022-11-23T14:15:36.298Z,50.03
2022-11-23T14:19:03.282Z,51.14
2022-11-23T14:22:23.465Z,52.17
2022-11-23T14:25:42.135Z,52.45
2022-11-23T14:29:01.014Z,52.39
2022-11-23T14:32:29.828Z,53.13
2022-11-23T14:35:42.459Z,53.42
2022-11-23T14:39:03.612Z,54.38
2022-11-23T14:42:14.943Z,55.20
2022-11-23T14:45:23.354Z,55.94
2022-11-23T14:48:30.966Z,56.24
2022-11-23T14:51:36.645Z,56.46
2022-11-23T14:54:41.462Z,56.73
2022-11-23T14:57:49.358Z,56.89
2022-11-23T15:00:55.729Z,56.27
2022-11-23T15:04:00.816Z,56.66
2022-11-23T15:07:10.231Z,57.26
2022-11-23T15:10:31.093Z,57.70
2022-11-23T15:13:48.413Z,57.65
2022-11-23T15:16:54.783Z,57.94
2022-11-23T15:19:59.946Z,58.26
2022-11-23T15:23:04.864Z,58.51
2022-11-23T15:26:34.698Z,58.68
2022-11-23T15:29:41.157Z,59.28
2022-11-23T15:32:46.911Z,59.48
2022-11-23T15:35:53.401Z,59.46
2022-11-23T15:38:59.008Z,60.15
2022-11-23T15:42:04.420Z,60.48
2022-11-23T15:45:23.932Z,59.58
2022-11-23T15:48:32.757Z,60.58
2022-11-23T15:51:41.317Z,61.24
2022-11-23T15:54:46.260Z,61.02
2022-11-23T15:57:53.898Z,61.52
2022-11-23T16:01:07.031Z,62.74
2022-11-23T16:04:28.056Z,63.68
2022-11-23T16:07:32.816Z,63.15
2022-11-23T16:10:37.223Z,64.57
2022-11-23T16:13:42.357Z,63.20
2022-11-23T16:16:48.936Z,62.42
2022-11-23T16:19:56.354Z,61.95
2022-11-23T16:23:02.294Z,61.52
2022-11-23T16:26:08.245Z,61.59
2022-11-23T16:29:23.658Z,61.61
2022-11-23T16:32:30.612Z,61.52
2022-11-23T16:35:36.815Z,61.90
2022-11-23T16:38:41.199Z,61.77
2022-11-23T16:41:46.462Z,62.17
2022-11-23T16:44:52.131Z,61.33
2022-11-23T16:48:00.515Z,61.90
2022-11-23T16:51:08.102Z,65.32
2022-11-23T16:54:14.042Z,63.94
2022-11-23T16:57:27.861Z,63.09
2022-11-23T17:00:34.216Z,64.94
2022-11-23T17:03:41.410Z,65.52
2022-11-23T17:06:49.216Z,66.65
2022-11-23T17:09:54.040Z,67.26
2022-11-23T17:12:59.296Z,66.88
2022-11-23T17:16:03.977Z,67.18
2022-11-23T17:19:11.843Z,66.50
2022-11-23T17:22:17.836Z,67.67
2022-11-23T17:25:22.134Z,67.84
2022-11-23T17:28:28.215Z,67.39
2022-11-23T17:31:33.055Z,68.45
2022-11-23T17:34:37.763Z,68.82
2022-11-23T17:37:44.003Z,70.37
2022-11-23T17:40:48.274Z,71.87
2022-11-23T17:43:53.166Z,75.14
2022-11-23T17:47:01.537Z,73.96
2022-11-23T17:50:08.850Z,75.27
2022-11-23T17:53:14.727Z,75.56
2022-11-23T17:56:20.170Z,75.76
2022-11-23T17:59:25.681Z,76.30
2022-11-23T18:02:29.945Z,77.28
2022-11-23T18:05:34.432Z,78.86
2022-11-23T18:08:40.499Z,79.62
2022-11-23T18:11:44.881Z,80.21
2022-11-23T18:14:49.178Z,80.32
2022-11-23T18:17:53.265Z,81.08
2022-11-23T18:20:59.029Z,81.10
2022-11-23T18:24:05.095Z,81.33
2022-11-23T18:27:09.614Z,81.56
2022-11-23T18:30:14.038Z,82.60
2022-11-23T18:33:18.140Z,83.02
2022-11-23T18:36:22.589Z,82.77
2022-11-23T18:39:30.061Z,84.34
2022-11-23T18:42:34.280Z,84.16
2022-11-23T18:45:39.013Z,84.51
2022-11-23T18:48:43.884Z,84.66
2022-11-23T18:51:47.231Z,85.26
2022-11-23T18:54:51.405Z,86.03
2022-11-23T18:57:54.934Z,86.10
2022-11-23T19:00:58.316Z,85.84
2022-11-23T19:04:01.877Z,85.89
2022-11-23T19:07:04.972Z,86.30
2022-11-23T19:10:10.319Z,87.04
2022-11-23T19:13:14.049Z,87.33
2022-11-23T19:16:20.949Z,87.04
2022-11-23T19:19:24.013Z,86.76
2022-11-23T19:22:27.527Z,87.22
2022-11-23T19:25:31.916Z,86.70
2022-11-23T19:28:37.731Z,87.86
2022-11-23T19:31:41.006Z,88.47
2022-11-23T19:34:43.989Z,88.43
2022-11-23T19:37:47.371Z,88.05
2022-11-23T19:40:56.756Z,88.18
2022-11-23T19:44:01.164Z,88.42
2022-11-23T19:47:10.110Z,88.72
2022-11-23T19:50:18.062Z,89.10
2022-11-23T19:53:20.986Z,89.23
2022-11-23T19:56:28.848Z,89.80
2022-11-23T19:59:32.264Z,89.76
2022-11-23T20:02:35.397Z,90.13
2022-11-23T20:05:38.573Z,90.79
2022-11-23T20:08:41.425Z,92.05
2022-11-23T20:11:50.380Z,91.66
2022-11-23T20:14:54.276Z,91.73
2022-11-23T20:17:57.824Z,92.61
2022-11-23T20:21:01.952Z,92.54
2022-11-23T20:24:06.630Z,92.79
2022-11-23T20:27:11.105Z,92.57
2022-11-23T20:30:14.200Z,93.00
2022-11-23T20:33:20.219Z,92.11
2022-11-23T20:36:26.142Z,91.78
2022-11-23T20:39:29.469Z,91.36
2022-11-23T20:42:33.667Z,88.77
2022-11-23T20:45:37.567Z,88.22
2022-11-23T20:48:41.434Z,88.29
2022-11-23T20:51:46.414Z,89.01
2022-11-23T20:54:49.256Z,87.90
2022-11-23T20:57:54.597Z,87.94
2022-11-23T21:00:57.408Z,87.63
2022-11-23T21:04:00.612Z,86.80
2022-11-23T21:07:03.466Z,87.55
2022-11-23T21:10:06.961Z,87.36
2022-11-23T21:13:37.201Z,88.08
2022-11-23T21:16:55.172Z,87.96
2022-11-23T21:19:57.914Z,88.25
2022-11-23T21:23:00.693Z,88.89
2022-11-23T21:26:05.754Z,88.84
2022-11-23T21:29:11.373Z,89.27
2022-11-23T21:32:15.096Z,88.90
2022-11-23T21:35:17.942Z,89.26
2022-11-23T21:38:23.448Z,89.57
2022-11-23T21:41:26.286Z,89.52
2022-11-23T21:44:30.405Z,89.34
2022-11-23T21:47:33.858Z,90.27
2022-11-23T21:50:36.566Z,90.79
2022-11-23T21:53:40.014Z,90.09
2022-11-23T21:56:43.516Z,89.77
2022-11-23T21:59:47.870Z,89.52
2022-11-23T22:02:53.486Z,88.90
2022-11-23T22:05:57.200Z,88.56
2022-11-23T22:09:00.745Z,89.16
2022-11-23T22:12:04.167Z,88.49
2022-11-23T22:32:06.291Z,90.13
2022-11-23T22:35:11.010Z,90.38
2022-11-23T22:38:14.075Z,89.39
2022-11-23T22:41:18.724Z,88.75
2022-11-23T22:44:21.625Z,87.18
2022-11-23T22:47:27.172Z,86.14
2022-11-23T22:50:33.934Z,86.14
2022-11-23T22:53:44.466Z,86.51
2022-11-23T22:56:47.708Z,87.57
2022-11-23T22:59:53.117Z,87.22
2022-11-23T23:02:56.489Z,86.90
2022-11-23T23:06:42.663Z,87.73
2022-11-23T23:09:49.361Z,87.80
2022-11-23T23:12:52.794Z,88.01
2022-11-23T23:16:18.603Z,88.00
2022-11-23T23:19:22.110Z,88.70
2022-11-23T23:22:26.441Z,88.52
2022-11-23T23:25:29.207Z,89.36
2022-11-23T23:28:32.218Z,89.14
2022-11-23T23:31:37.555Z,89.82
2022-11-23T23:34:40.416Z,90.22
2022-11-23T23:37:44.615Z,91.22
2022-11-23T23:40:47.422Z,90.49
2022-11-23T23:43:50.233Z,90.64
2022-11-23T23:46:52.986Z,90.76
2022-11-23T23:49:55.754Z,91.10
2022-11-23T23:53:00.178Z,90.95
2022-11-23T23:56:05.675Z,90.77
2022-11-23T23:59:08.612Z,90.56
